Time;durP1;ratioP1;P1;durP2;ratioP2;P2;SDS_P1;SDS_P2;PMS_P1;PMS_P2;Temp;Humidity;BMP_temperature;BMP_pressure;BME280_temperature;BME280_humidity;BME280_pressure;Samples;Min_cycle;Max_cycle;Signal;HPM_P1;HPM_P2
2023/09/21 00:01:25;;;;;;;5.68;2.00;;;17.90;99.90;;;;;;5077770;28;20070;-84
2023/09/21 00:04:21;;;;;;;5.35;1.92;;;18.00;99.90;;;;;;5076141;28;20221;-84
2023/09/21 00:07:18;;;;;;;5.20;2.20;;;18.10;99.90;;;;;;5059519;28;20145;-84
2023/09/21 00:09:55;;;;;;;2.85;2.03;;;18.00;99.90;;;;;;5059229;28;20565;-85
2023/09/21 00:12:26;;;;;;;3.58;2.20;;;18.20;99.90;;;;;;5061222;28;20063;-84
2023/09/21 00:14:59;;;;;;;3.55;2.00;;;18.00;99.90;;;;;;5062269;28;20115;-83
2023/09/21 00:17:54;;;;;;;5.10;1.90;;;18.00;99.90;;;;;;5063865;28;20036;-84
2023/09/21 00:20:51;;;;;;;4.75;2.10;;;18.20;99.90;;;;;;5053150;28;20127;-84
2023/09/21 00:23:24;;;;;;;3.83;2.10;;;18.10;99.90;;;;;;5074790;28;20052;-84
2023/09/21 00:25:53;;;;;;;4.65;1.98;;;18.00;99.90;;;;;;5074874;28;20625;-84
2023/09/21 00:28:21;;;;;;;3.17;2.10;;;18.00;99.90;;;;;;5063792;28;20101;-84
2023/09/21 00:30:49;;;;;;;3.55;2.20;;;17.90;99.90;;;;;;5073651;28;20526;-84
2023/09/21 00:33:15;;;;;;;3.55;2.00;;;18.00;99.90;;;;;;5061388;28;20052;-84
2023/09/21 00:35:41;;;;;;;3.45;2.10;;;18.00;99.90;;;;;;5061792;28;20309;-84
2023/09/21 00:38:10;;;;;;;5.72;2.35;;;18.00;99.90;;;;;;5060098;28;20040;-84
2023/09/21 00:40:40;;;;;;;3.33;1.85;;;18.10;99.90;;;;;;5077395;28;20037;-84
2023/09/21 00:43:07;;;;;;;8.60;2.28;;;18.10;99.90;;;;;;5075323;28;20044;-84
2023/09/21 00:45:37;;;;;;;3.17;2.00;;;18.20;99.90;;;;;;5074041;28;20124;-84
2023/09/21 00:48:07;;;;;;;4.70;2.30;;;18.10;99.90;;;;;;5059441;28;20481;-84
2023/09/21 00:50:33;;;;;;;3.55;2.13;;;18.20;99.90;;;;;;5058783;28;20552;-84
2023/09/21 00:52:59;;;;;;;6.38;2.65;;;18.10;99.90;;;;;;5074015;28;20054;-84
2023/09/21 00:55:29;;;;;;;3.97;2.28;;;18.10;99.90;;;;;;5069899;28;20046;-84
2023/09/21 00:58:00;;;;;;;5.60;2.38;;;18.00;99.90;;;;;;5056721;28;20041;-84
2023/09/21 01:00:26;;;;;;;5.13;2.20;;;18.10;99.90;;;;;;5062928;28;20044;-84
2023/09/21 01:02:53;;;;;;;5.47;2.53;;;18.00;99.90;;;;;;5056990;28;20463;-84
2023/09/21 01:05:21;;;;;;;4.85;2.40;;;18.00;99.90;;;;;;5074624;28;20040;-84
2023/09/21 01:07:48;;;;;;;4.75;2.38;;;18.00;99.90;;;;;;5062686;28;20402;-84
2023/09/21 01:10:19;;;;;;;5.47;2.55;;;18.00;99.90;;;;;;5076232;28;20048;-84
2023/09/21 01:12:48;;;;;;;3.33;2.35;;;18.00;99.90;;;;;;5071018;28;20036;-84
2023/09/21 01:15:15;;;;;;;5.47;2.10;;;18.00;99.90;;;;;;5062343;28;20132;-84
2023/09/21 01:17:41;;;;;;;3.95;2.15;;;18.00;99.90;;;;;;5055907;28;20032;-84
2023/09/21 01:20:28;;;;;;;3.40;2.10;;;18.00;99.90;;;;;;5077377;28;20047;-84
2023/09/21 01:23:12;;;;;;;4.57;2.47;;;17.90;99.90;;;;;;5077999;28;20047;-84
2023/09/21 01:25:40;;;;;;;4.80;2.20;;;17.90;99.90;;;;;;5058472;28;20109;-84
2023/09/21 01:28:10;;;;;;;3.92;2.30;;;17.90;99.90;;;;;;5079072;28;20105;-84
2023/09/21 01:30:39;;;;;;;4.07;2.42;;;17.80;99.90;;;;;;5073677;28;20048;-84
2023/09/21 01:33:11;;;;;;;4.55;2.30;;;17.80;99.90;;;;;;5055580;28;20047;-85
2023/09/21 01:35:43;;;;;;;5.18;2.63;;;17.70;99.90;;;;;;5059029;28;20278;-84
2023/09/21 01:38:09;;;;;;;6.28;3.05;;;17.70;99.90;;;;;;5058880;28;20051;-84
2023/09/21 01:40:36;;;;;;;4.78;2.35;;;17.70;99.90;;;;;;5060721;28;20036;-84
2023/09/21 01:43:16;;;;;;;4.32;2.38;;;17.60;99.90;;;;;;5058926;28;20496;-84
2023/09/21 01:45:42;;;;;;;3.58;2.08;;;17.50;99.90;;;;;;5062274;28;20064;-84
2023/09/21 01:48:09;;;;;;;4.47;2.20;;;17.50;99.90;;;;;;5057720;28;20048;-85
2023/09/21 01:50:40;;;;;;;5.65;2.60;;;17.50;99.90;;;;;;5059499;28;20058;-84
2023/09/21 01:53:09;;;;;;;5.32;2.53;;;17.50;99.90;;;;;;5076887;28;20040;-84
2023/09/21 01:55:35;;;;;;;4.15;2.30;;;17.40;99.90;;;;;;5057479;28;20098;-84
2023/09/21 01:58:02;;;;;;;6.07;2.33;;;17.40;99.90;;;;;;5058374;28;20039;-84
2023/09/21 02:00:29;;;;;;;3.92;2.42;;;17.40;99.90;;;;;;5074132;28;20074;-84
2023/09/21 02:02:55;;;;;;;3.40;2.45;;;17.40;99.90;;;;;;5059841;28;20373;-83
2023/09/21 02:05:23;;;;;;;4.28;2.20;;;17.30;99.90;;;;;;5054940;28;20499;-84
2023/09/21 02:07:49;;;;;;;3.75;2.40;;;17.30;99.90;;;;;;5059879;28;20134;-84
2023/09/21 02:10:15;;;;;;;5.93;2.63;;;17.30;99.90;;;;;;5069099;28;20048;-84
2023/09/21 02:13:00;;;;;;;4.68;2.50;;;17.20;99.90;;;;;;5055264;28;20039;-84
2023/09/21 02:15:27;;;;;;;4.68;2.45;;;17.20;99.90;;;;;;5058044;28;20036;-84
2023/09/21 02:17:55;;;;;;;4.30;2.10;;;17.20;99.90;;;;;;5054941;28;20346;-84
2023/09/21 02:20:26;;;;;;;3.40;2.10;;;17.20;99.90;;;;;;5071699;28;20150;-84
2023/09/21 02:22:53;;;;;;;4.82;2.47;;;17.10;99.90;;;;;;5074735;28;20052;-84
2023/09/21 02:25:22;;;;;;;4.50;2.08;;;17.10;99.90;;;;;;5052298;28;20052;-84
2023/09/21 02:27:48;;;;;;;4.10;2.10;;;17.00;99.90;;;;;;5055620;28;20173;-84
2023/09/21 02:30:22;;;;;;;5.60;2.47;;;17.00;99.90;;;;;;5067405;28;20131;-84
2023/09/21 02:32:53;;;;;;;3.33;2.20;;;17.00;99.90;;;;;;5071310;28;20045;-84
2023/09/21 02:35:27;;;;;;;7.05;2.45;;;17.00;99.90;;;;;;5071278;28;20043;-84
2023/09/21 02:37:54;;;;;;;4.03;2.40;;;17.00;99.90;;;;;;5069614;28;20060;-84
2023/09/21 02:40:24;;;;;;;5.40;2.55;;;17.00;99.90;;;;;;5056475;28;20047;-84
2023/09/21 02:42:54;;;;;;;5.03;2.30;;;17.00;99.90;;;;;;5061389;28;20079;-84
2023/09/21 02:45:23;;;;;;;5.20;2.35;;;16.90;99.90;;;;;;5056751;28;20125;-84
2023/09/21 02:47:51;;;;;;;3.53;2.10;;;16.90;99.90;;;;;;5071628;28;20043;-84
2023/09/21 02:50:36;;;;;;;4.45;2.60;;;16.90;99.90;;;;;;5061085;28;20044;-84
2023/09/21 02:53:08;;;;;;;6.32;2.55;;;16.90;99.90;;;;;;5073854;28;20036;-84
2023/09/21 02:55:36;;;;;;;3.85;2.30;;;16.90;99.90;;;;;;5054779;28;20040;-85
2023/09/21 02:58:12;;;;;;;5.32;2.30;;;16.90;99.90;;;;;;5059571;28;20032;-84
2023/09/21 03:00:42;;;;;;;5.10;2.42;;;17.00;99.90;;;;;;5054106;28;20116;-84
2023/09/21 03:03:16;;;;;;;4.35;2.60;;;17.10;99.90;;;;;;5057796;28;20113;-84
2023/09/21 03:05:47;;;;;;;4.67;2.27;;;17.20;99.90;;;;;;5061547;28;20047;-84
2023/09/21 03:08:14;;;;;;;3.95;2.22;;;17.20;99.90;;;;;;5058821;28;20286;-84
2023/09/21 03:10:48;;;;;;;4.38;1.95;;;17.20;99.90;;;;;;5058534;28;20098;-84
2023/09/21 03:13:18;;;;;;;3.95;2.13;;;17.30;99.90;;;;;;5052471;28;20135;-84
2023/09/21 03:15:53;;;;;;;4.05;2.00;;;17.50;99.90;;;;;;5070077;28;20036;-85
2023/09/21 03:18:20;;;;;;;4.95;2.58;;;17.50;99.90;;;;;;5071330;28;20519;-84
2023/09/21 03:20:48;;;;;;;4.10;2.05;;;17.60;99.90;;;;;;5053729;28;20373;-84
2023/09/21 03:23:15;;;;;;;4.10;2.15;;;17.60;99.90;;;;;;5070201;28;20050;-85
2023/09/21 03:25:47;;;;;;;3.70;2.22;;;17.70;99.90;;;;;;5057610;28;20404;-84
2023/09/21 03:28:15;;;;;;;5.13;2.08;;;17.80;99.90;;;;;;5074634;28;20059;-84
2023/09/21 03:30:44;;;;;;;6.93;2.20;;;17.70;99.90;;;;;;5061643;28;20169;-84
2023/09/21 03:33:10;;;;;;;3.83;2.00;;;17.80;99.90;;;;;;5053782;28;20417;-84
2023/09/21 03:35:39;;;;;;;5.50;2.35;;;17.80;99.90;;;;;;5068706;28;20028;-84
2023/09/21 03:38:08;;;;;;;3.30;2.17;;;17.90;99.90;;;;;;5073750;28;20051;-84
2023/09/21 03:40:34;;;;;;;3.50;1.95;;;17.90;99.90;;;;;;5060330;28;20328;-84
2023/09/21 03:42:59;;;;;;;3.45;2.03;;;17.80;99.90;;;;;;5059399;28;20040;-84
2023/09/21 03:45:28;;;;;;;4.45;2.00;;;17.80;99.90;;;;;;5075736;28;20052;-84
2023/09/21 03:47:54;;;;;;;4.35;2.00;;;17.90;99.90;;;;;;5078835;28;20470;-84
2023/09/21 03:50:25;;;;;;;5.22;2.03;;;17.90;99.90;;;;;;5078660;28;20060;-84
2023/09/21 03:52:52;;;;;;;5.40;2.60;;;17.90;99.90;;;;;;5078284;28;20044;-83
2023/09/21 03:55:17;;;;;;;3.90;2.22;;;17.80;99.90;;;;;;5082583;28;20069;-84
2023/09/21 03:57:47;;;;;;;4.07;2.47;;;17.90;99.90;;;;;;5076761;28;20415;-83
2023/09/21 04:00:26;;;;;;;3.75;2.22;;;17.90;99.90;;;;;;5073310;28;20040;-84
2023/09/21 04:02:59;;;;;;;4.20;2.22;;;17.90;99.90;;;;;;5106876;28;20376;-84
2023/09/21 04:05:30;;;;;;;2.63;2.03;;;17.90;99.90;;;;;;5083158;28;20110;-84
2023/09/21 04:07:57;;;;;;;2.80;2.05;;;17.90;99.90;;;;;;5091472;28;20035;-84
2023/09/21 04:10:23;;;;;;;6.72;2.38;;;17.90;99.90;;;;;;5077067;28;20078;-84
2023/09/21 04:12:50;;;;;;;3.90;2.08;;;17.90;99.90;;;;;;5076324;28;20036;-84
2023/09/21 04:15:19;;;;;;;3.35;2.17;;;17.90;99.90;;;;;;5082721;28;20477;-84
2023/09/21 04:17:44;;;;;;;3.53;2.20;;;17.90;99.90;;;;;;5079872;28;20125;-84
2023/09/21 04:20:15;;;;;;;4.10;2.20;;;17.80;99.90;;;;;;5081812;28;20552;-84
2023/09/21 04:22:42;;;;;;;4.10;2.10;;;17.80;99.90;;;;;;5078326;28;20046;-84
2023/09/21 04:25:09;;;;;;;4.38;2.00;;;17.90;99.90;;;;;;5094791;28;20085;-84
2023/09/21 04:27:43;;;;;;;3.50;2.17;;;17.90;99.90;;;;;;5098214;28;20039;-84
2023/09/21 04:30:16;;;;;;;5.50;2.30;;;17.90;99.90;;;;;;5084080;28;20095;-84
2023/09/21 04:32:45;;;;;;;3.80;2.20;;;17.90;99.90;;;;;;5096795;28;20071;-84
2023/09/21 04:35:11;;;;;;;5.22;2.00;;;17.80;99.90;;;;;;5094959;28;20047;-84
2023/09/21 04:37:39;;;;;;;3.63;2.25;;;17.80;99.90;;;;;;5090945;28;20078;-84
2023/09/21 04:40:09;;;;;;;3.45;2.10;;;17.80;99.90;;;;;;5083098;28;20054;-84
2023/09/21 04:42:38;;;;;;;3.63;1.95;;;17.80;99.90;;;;;;5102040;27;20074;-84
2023/09/21 04:45:09;;;;;;;4.25;2.20;;;17.80;99.90;;;;;;5070022;28;20081;-84
2023/09/21 04:47:38;;;;;;;3.10;2.03;;;17.80;99.90;;;;;;5073821;28;20055;-84
2023/09/21 04:50:05;;;;;;;4.47;2.08;;;17.70;99.90;;;;;;5072704;28;20044;-84
2023/09/21 04:52:34;;;;;;;4.07;2.10;;;17.70;99.90;;;;;;5058905;28;20044;-84
2023/09/21 04:55:01;;;;;;;3.25;2.03;;;17.70;99.90;;;;;;5060200;28;20082;-84
2023/09/21 04:57:30;;;;;;;5.38;2.05;;;17.70;99.90;;;;;;5073277;28;20040;-84
2023/09/21 04:59:59;;;;;;;5.28;2.00;;;17.60;99.90;;;;;;5064299;28;20040;-84
2023/09/21 05:02:26;;;;;;;4.40;2.10;;;17.60;99.90;;;;;;5061796;28;20050;-84
2023/09/21 05:04:52;;;;;;;3.30;1.80;;;17.50;99.90;;;;;;5054181;28;20634;-84
2023/09/21 05:07:18;;;;;;;8.23;2.20;;;17.50;99.90;;;;;;5073900;28;20513;-85
2023/09/21 05:09:47;;;;;;;4.35;2.10;;;17.40;99.90;;;;;;5058573;28;20177;-85
2023/09/21 05:12:18;;;;;;;3.25;1.95;;;17.40;99.90;;;;;;5061862;28;20040;-84
2023/09/21 05:14:48;;;;;;;4.82;2.10;;;17.50;99.90;;;;;;5058122;28;20626;-84
2023/09/21 05:17:14;;;;;;;3.67;2.40;;;17.40;99.90;;;;;;5061914;28;20043;-85
2023/09/21 05:19:41;;;;;;;4.65;2.08;;;17.60;99.90;;;;;;5065899;28;20185;-84
2023/09/21 05:22:09;;;;;;;8.23;2.90;;;17.60;99.90;;;;;;5059024;28;20127;-84
2023/09/21 05:24:36;;;;;;;4.90;2.30;;;17.60;99.90;;;;;;5060592;28;20040;-84
2023/09/21 05:27:02;;;;;;;3.67;2.17;;;17.70;99.90;;;;;;5075460;28;20302;-84
2023/09/21 05:29:28;;;;;;;3.30;2.08;;;17.60;99.90;;;;;;5057172;28;20033;-84
2023/09/21 05:31:54;;;;;;;3.70;2.08;;;17.70;99.90;;;;;;5072843;28;20060;-84
2023/09/21 05:34:20;;;;;;;5.95;2.20;;;17.80;99.90;;;;;;5071647;28;20085;-84
2023/09/21 05:36:49;;;;;;;3.28;2.38;;;17.80;99.90;;;;;;5053700;28;20032;-84
2023/09/21 05:39:17;;;;;;;4.00;2.25;;;17.80;99.90;;;;;;5061495;28;20139;-84
2023/09/21 05:41:44;;;;;;;3.38;1.83;;;17.80;99.90;;;;;;5073143;28;20056;-84
2023/09/21 05:44:10;;;;;;;7.03;1.92;;;17.90;99.90;;;;;;5074315;28;20497;-84
2023/09/21 05:46:35;;;;;;;4.03;1.98;;;18.00;99.90;;;;;;5059353;28;20193;-84
2023/09/21 05:49:03;;;;;;;3.42;1.90;;;18.00;99.90;;;;;;5059962;28;20519;-84
2023/09/21 05:51:29;;;;;;;5.90;2.35;;;18.00;99.90;;;;;;5075232;28;20142;-84
2023/09/21 05:53:55;;;;;;;4.03;2.08;;;18.10;99.90;;;;;;5063525;28;20040;-84
2023/09/21 05:56:21;;;;;;;2.80;1.95;;;18.10;99.90;;;;;;5057075;28;20566;-84
2023/09/21 05:58:46;;;;;;;3.33;2.05;;;18.20;99.90;;;;;;5075037;28;20047;-84
2023/09/21 06:01:13;;;;;;;3.20;2.00;;;18.20;99.90;;;;;;5056684;28;20397;-84
2023/09/21 06:03:39;;;;;;;2.83;1.70;;;18.30;99.90;;;;;;5059159;28;20098;-84
2023/09/21 06:06:07;;;;;;;3.58;1.73;;;18.30;99.90;;;;;;5074090;28;20056;-84
2023/09/21 06:08:34;;;;;;;2.42;1.90;;;18.30;99.90;;;;;;5065349;28;20040;-84
2023/09/21 06:11:02;;;;;;;2.50;1.85;;;18.30;99.90;;;;;;5072875;28;20075;-84
2023/09/21 06:13:28;;;;;;;3.78;2.03;;;18.30;99.90;;;;;;5072976;28;20369;-84
2023/09/21 06:15:54;;;;;;;5.75;2.10;;;18.40;99.90;;;;;;5074054;28;20409;-84
2023/09/21 06:18:21;;;;;;;2.70;1.83;;;18.40;99.90;;;;;;5072194;28;20036;-84
2023/09/21 06:20:46;;;;;;;2.92;1.70;;;18.50;99.90;;;;;;5056437;28;20115;-84
2023/09/21 06:23:12;;;;;;;2.95;1.85;;;18.50;99.90;;;;;;5074207;28;20131;-84
2023/09/21 06:25:38;;;;;;;4.10;2.00;;;18.50;99.90;;;;;;5073342;28;20035;-84
2023/09/21 06:28:04;;;;;;;2.90;1.70;;;18.50;99.90;;;;;;5060007;28;20140;-84
2023/09/21 06:30:29;;;;;;;3.50;1.90;;;18.50;99.90;;;;;;5073367;28;20440;-84
2023/09/21 06:32:55;;;;;;;2.85;1.98;;;18.50;99.90;;;;;;5071335;28;20054;-84
2023/09/21 06:35:23;;;;;;;4.90;2.10;;;18.50;99.90;;;;;;5058750;28;20032;-84
2023/09/21 06:37:54;;;;;;;2.72;1.75;;;18.50;99.90;;;;;;5074910;28;20471;-84
2023/09/21 06:40:25;;;;;;;3.97;1.95;;;18.50;99.90;;;;;;5059113;28;20042;-84
2023/09/21 06:42:55;;;;;;;2.90;1.98;;;18.50;99.90;;;;;;5056056;28;20078;-84
2023/09/21 06:45:20;;;;;;;2.45;1.80;;;18.60;99.90;;;;;;5053196;28;20142;-84
2023/09/21 06:47:47;;;;;;;3.85;2.20;;;18.60;99.90;;;;;;5071048;28;20040;-84
2023/09/21 06:50:14;;;;;;;3.80;2.08;;;18.60;99.90;;;;;;5069520;28;20142;-82
2023/09/21 06:52:40;;;;;;;5.68;2.08;;;18.50;99.90;;;;;;5058274;28;20373;-82
2023/09/21 06:55:07;;;;;;;2.67;1.90;;;18.40;99.90;;;;;;5058801;28;20380;-82
2023/09/21 06:57:34;;;;;;;3.15;1.98;;;18.40;99.90;;;;;;5061442;28;20340;-82
2023/09/21 07:00:01;;;;;;;4.03;2.70;;;18.40;99.90;;;;;;5059975;28;20082;-82
2023/09/21 07:02:27;;;;;;;3.38;2.13;;;18.40;99.90;;;;;;5073829;28;20471;-83
2023/09/21 07:04:53;;;;;;;4.80;2.10;;;18.40;99.90;;;;;;5068055;28;20071;-82
2023/09/21 07:07:20;;;;;;;3.03;2.15;;;18.40;99.90;;;;;;5072871;28;20506;-81
2023/09/21 07:09:46;;;;;;;3.38;2.03;;;18.30;99.90;;;;;;5058684;28;20044;-81
2023/09/21 07:12:12;;;;;;;4.18;2.10;;;18.30;99.90;;;;;;5074360;28;20044;-82
2023/09/21 07:14:41;;;;;;;4.82;2.30;;;18.20;99.90;;;;;;5075810;28;20040;-82
2023/09/21 07:17:06;;;;;;;3.92;2.05;;;18.20;99.90;;;;;;5056981;28;20496;-81
2023/09/21 07:19:34;;;;;;;5.90;2.00;;;18.20;99.90;;;;;;5055504;28;20120;-82
2023/09/21 07:22:00;;;;;;;2.88;2.25;;;18.20;99.90;;;;;;5052456;28;20043;-82
2023/09/21 07:24:26;;;;;;;6.18;2.10;;;18.10;99.90;;;;;;5070340;28;20044;-82
2023/09/21 07:26:53;;;;;;;7.03;2.05;;;18.10;99.90;;;;;;5068435;28;20407;-82
2023/09/21 07:29:19;;;;;;;5.53;2.30;;;18.20;99.90;;;;;;5059550;28;20396;-82
2023/09/21 07:31:45;;;;;;;3.95;2.30;;;18.20;99.90;;;;;;5071334;28;20036;-82
2023/09/21 07:34:11;;;;;;;4.38;2.30;;;18.30;99.90;;;;;;5059886;28;20028;-82
2023/09/21 07:36:38;;;;;;;5.00;2.30;;;18.30;99.90;;;;;;5052651;28;20040;-82
2023/09/21 07:39:09;;;;;;;4.25;2.10;;;18.30;99.90;;;;;;5068965;28;20056;-82
2023/09/21 07:41:35;;;;;;;3.25;1.98;;;18.30;99.90;;;;;;5057495;28;20485;-82
2023/09/21 07:44:01;;;;;;;2.97;2.33;;;18.40;99.90;;;;;;5054638;28;20132;-82
2023/09/21 07:46:28;;;;;;;5.88;2.30;;;18.40;99.90;;;;;;5058170;28;20072;-82
2023/09/21 07:48:53;;;;;;;4.38;2.08;;;18.50;99.90;;;;;;5060010;28;20040;-82
2023/09/21 07:51:21;;;;;;;3.63;2.30;;;18.50;99.90;;;;;;5069540;28;20059;-81
2023/09/21 07:53:46;;;;;;;6.40;2.55;;;18.40;99.90;;;;;;5076322;28;20051;-81
2023/09/21 07:56:13;;;;;;;3.72;2.20;;;18.40;99.90;;;;;;5072657;28;20036;-81
2023/09/21 07:58:39;;;;;;;3.72;2.30;;;18.30;99.90;;;;;;5055325;28;20032;-82
2023/09/21 08:01:05;;;;;;;6.40;3.20;;;18.30;99.90;;;;;;5059470;28;20040;-82
2023/09/21 08:03:31;;;;;;;6.30;3.45;;;18.30;99.90;;;;;;5060567;28;20047;-82
2023/09/21 08:05:57;;;;;;;6.22;2.63;;;18.20;99.90;;;;;;5061756;28;20496;-82
2023/09/21 08:08:26;;;;;;;3.92;2.50;;;18.20;99.90;;;;;;5060291;28;20129;-82
2023/09/21 08:10:53;;;;;;;4.63;2.50;;;18.20;99.90;;;;;;5071279;28;20474;-82
2023/09/21 08:13:20;;;;;;;6.05;2.40;;;18.20;99.90;;;;;;5058066;28;20051;-81
2023/09/21 08:15:46;;;;;;;4.63;2.50;;;18.20;99.90;;;;;;5062058;28;20512;-82
2023/09/21 08:18:12;;;;;;;3.17;2.10;;;18.20;99.90;;;;;;5055876;28;20047;-82
2023/09/21 08:20:39;;;;;;;4.78;2.20;;;18.10;99.90;;;;;;5059806;28;20028;-81
2023/09/21 08:23:09;;;;;;;4.47;2.58;;;18.10;99.90;;;;;;5052457;28;20047;-81
2023/09/21 08:25:35;;;;;;;4.50;2.38;;;18.10;99.90;;;;;;5056970;28;20035;-82
2023/09/21 08:28:05;;;;;;;7.65;2.70;;;18.20;99.90;;;;;;5066867;28;20044;-81
2023/09/21 08:30:31;;;;;;;4.55;3.25;;;18.20;99.90;;;;;;5065022;28;20870;-81
2023/09/21 08:32:57;;;;;;;4.22;2.45;;;18.10;99.90;;;;;;5061121;28;20047;-81
2023/09/21 08:35:23;;;;;;;5.18;2.50;;;18.20;99.90;;;;;;5053613;28;20040;-82
2023/09/21 08:37:50;;;;;;;5.60;2.78;;;18.10;99.90;;;;;;5061210;28;20089;-82
2023/09/21 08:40:21;;;;;;;5.70;2.80;;;18.10;99.90;;;;;;5074291;28;20032;-81
2023/09/21 08:42:52;;;;;;;4.70;2.60;;;18.10;99.90;;;;;;5087325;28;20040;-81
2023/09/21 08:45:19;;;;;;;4.85;2.53;;;18.10;99.90;;;;;;5060243;28;20053;-81
2023/09/21 08:47:46;;;;;;;5.18;2.58;;;18.10;99.90;;;;;;5076509;28;20082;-81
2023/09/21 08:50:15;;;;;;;4.28;2.30;;;18.10;99.90;;;;;;5072957;28;20040;-81
2023/09/21 08:52:48;;;;;;;5.80;2.45;;;18.10;99.90;;;;;;5069131;28;20228;-81
2023/09/21 08:55:14;;;;;;;4.07;2.75;;;18.20;99.90;;;;;;5072232;28;20416;-81
2023/09/21 08:57:40;;;;;;;3.60;2.72;;;18.20;99.90;;;;;;5060355;28;20127;-81
2023/09/21 09:00:09;;;;;;;5.03;2.78;;;18.20;99.90;;;;;;5069111;28;20108;-81
2023/09/21 09:02:36;;;;;;;5.95;2.70;;;18.20;99.90;;;;;;5077165;28;20250;-81
2023/09/21 09:05:09;;;;;;;4.53;2.80;;;18.20;99.90;;;;;;5070233;28;20040;-81
2023/09/21 09:07:42;;;;;;;3.33;2.53;;;18.10;99.90;;;;;;5073442;28;20109;-82
2023/09/21 09:10:12;;;;;;;3.90;2.80;;;18.20;99.90;;;;;;5073882;28;20044;-81
2023/09/21 09:12:39;;;;;;;5.40;3.20;;;18.20;99.90;;;;;;5058141;28;20040;-81
2023/09/21 09:15:08;;;;;;;6.15;3.00;;;18.10;99.90;;;;;;5053390;28;20044;-81
2023/09/21 09:17:34;;;;;;;3.47;2.30;;;18.00;99.90;;;;;;5069947;28;20051;-82
2023/09/21 09:20:03;;;;;;;4.88;2.55;;;18.00;99.90;;;;;;5070697;28;20033;-82
2023/09/21 09:22:32;;;;;;;3.83;2.70;;;17.80;99.90;;;;;;5054619;28;20076;-81
2023/09/21 09:25:06;;;;;;;4.90;2.65;;;17.80;99.90;;;;;;5059375;28;20051;-82
2023/09/21 09:27:32;;;;;;;4.70;2.83;;;17.70;99.90;;;;;;5070881;28;20068;-82
2023/09/21 09:29:59;;;;;;;5.38;3.08;;;17.70;99.90;;;;;;5068680;28;20032;-82
2023/09/21 09:32:34;;;;;;;5.07;2.67;;;17.60;99.90;;;;;;5069656;28;20493;-82
2023/09/21 09:35:02;;;;;;;4.25;3.00;;;17.80;99.90;;;;;;5058781;28;20036;-82
2023/09/21 09:37:27;;;;;;;6.10;3.10;;;17.80;99.90;;;;;;5070071;28;20120;-81
2023/09/21 09:39:53;;;;;;;3.55;2.60;;;17.70;99.90;;;;;;5056198;28;20088;-81
2023/09/21 09:42:19;;;;;;;2.33;1.27;;;17.40;99.90;;;;;;5061053;28;20136;-81
2023/09/21 09:44:46;;;;;;;2.40;1.35;;;17.10;99.90;;;;;;5059423;28;20052;-81
2023/09/21 09:47:16;;;;;;;2.63;1.00;;;16.90;99.90;;;;;;5060235;28;20098;-81
2023/09/21 09:49:45;;;;;;;1.83;0.73;;;16.50;99.90;;;;;;5055785;28;20051;-82
2023/09/21 09:52:13;;;;;;;2.60;1.05;;;16.40;99.90;;;;;;5057728;28;20047;-81
2023/09/21 09:54:40;;;;;;;1.25;0.80;;;16.30;99.90;;;;;;5072798;28;20279;-82
2023/09/21 09:57:11;;;;;;;1.85;0.90;;;16.40;99.90;;;;;;5035567;28;20109;-81
2023/09/21 09:59:37;;;;;;;0.93;0.65;;;16.30;99.90;;;;;;5069918;28;20051;-81
2023/09/21 10:02:07;;;;;;;1.52;0.80;;;16.20;99.90;;;;;;5059463;28;20511;-81
2023/09/21 10:04:36;;;;;;;1.73;0.82;;;16.20;99.90;;;;;;5065927;28;20646;-81
2023/09/21 10:07:04;;;;;;;0.90;0.70;;;16.30;99.90;;;;;;5072244;28;20055;-81
2023/09/21 10:09:31;;;;;;;0.70;0.50;;;16.30;99.90;;;;;;5071748;28;20051;-81
2023/09/21 10:11:58;;;;;;;2.33;0.90;;;16.20;99.90;;;;;;5059073;28;20040;-81
2023/09/21 10:14:24;;;;;;;1.73;0.70;;;16.30;99.90;;;;;;5072966;28;20059;-81
2023/09/21 10:16:54;;;;;;;1.13;0.60;;;16.10;99.90;;;;;;5059372;28;20513;-81
2023/09/21 10:19:25;;;;;;;1.85;1.00;;;16.10;99.90;;;;;;5055357;28;20054;-82
2023/09/21 10:21:59;;;;;;;1.13;0.60;;;16.20;99.90;;;;;;5058425;28;20040;-81
2023/09/21 10:24:29;;;;;;;1.52;0.77;;;15.90;99.90;;;;;;5057152;28;20039;-82
2023/09/21 10:26:58;;;;;;;1.58;0.80;;;15.90;99.90;;;;;;5054823;28;20556;-81
2023/09/21 10:29:32;;;;;;;0.80;0.50;;;16.00;99.90;;;;;;5067635;28;20075;-81
2023/09/21 10:32:06;;;;;;;2.22;0.85;;;16.00;99.90;;;;;;5054344;28;20296;-82
2023/09/21 10:34:32;;;;;;;1.33;0.80;;;16.00;99.90;;;;;;5068809;28;20392;-82
2023/09/21 10:37:10;;;;;;;1.35;0.70;;;16.10;99.90;;;;;;5053473;28;20553;-81
2023/09/21 10:39:38;;;;;;;2.33;0.73;;;16.20;99.90;;;;;;5061112;28;20040;-81
2023/09/21 10:42:04;;;;;;;1.30;0.77;;;16.30;99.90;;;;;;5050719;28;20076;-81
2023/09/21 10:45:07;;;;;;;0.75;0.50;;;16.30;99.90;;;;;;5050572;28;20102;-81
2023/09/21 10:47:35;;;;;;;1.60;0.60;;;16.30;99.90;;;;;;5054655;28;20044;-82
2023/09/21 10:50:03;;;;;;;1.25;0.65;;;16.40;99.90;;;;;;5056048;28;20040;-81
2023/09/21 10:52:29;;;;;;;1.42;0.70;;;16.40;99.90;;;;;;5056356;28;20037;-82
2023/09/21 10:54:56;;;;;;;1.38;0.70;;;16.40;99.90;;;;;;5060007;28;20024;-81
2023/09/21 10:57:27;;;;;;;1.63;0.70;;;16.50;99.90;;;;;;5050583;28;20119;-81
2023/09/21 10:59:53;;;;;;;1.08;0.68;;;16.50;99.90;;;;;;5052159;28;20543;-81
2023/09/21 11:02:21;;;;;;;1.00;0.70;;;16.80;99.90;;;;;;5067014;28;20047;-82
2023/09/21 11:04:48;;;;;;;0.98;0.57;;;17.20;99.90;;;;;;5056664;28;20064;-82
2023/09/21 11:07:16;;;;;;;1.63;0.77;;;17.30;99.90;;;;;;5055171;28;20039;-82
2023/09/21 11:09:43;;;;;;;1.30;0.70;;;17.40;99.90;;;;;;5058838;28;20704;-82
2023/09/21 11:12:13;;;;;;;1.45;0.70;;;17.40;99.90;;;;;;5066127;28;20048;-82
2023/09/21 11:14:43;;;;;;;2.97;0.70;;;17.20;99.90;;;;;;5058157;28;20024;-82
2023/09/21 11:17:12;;;;;;;0.93;0.80;;;16.90;99.90;;;;;;5056383;28;20117;-82
2023/09/21 11:19:42;;;;;;;1.65;0.90;;;16.90;99.90;;;;;;5055972;28;20357;-82
2023/09/21 11:22:09;;;;;;;1.20;0.80;;;17.10;99.90;;;;;;5068201;28;20524;-82
2023/09/21 11:24:36;;;;;;;1.67;0.60;;;16.80;99.90;;;;;;5057380;28;20078;-83
2023/09/21 11:27:06;;;;;;;1.77;1.02;;;17.00;99.90;;;;;;5060637;28;20157;-82
2023/09/21 11:29:31;;;;;;;2.22;0.75;;;17.00;99.90;;;;;;5058887;28;20359;-82
2023/09/21 11:31:57;;;;;;;2.47;1.00;;;16.90;99.90;;;;;;5056051;28;20520;-83
2023/09/21 11:34:23;;;;;;;2.28;0.80;;;16.80;99.90;;;;;;5057574;28;20082;-82
2023/09/21 11:36:50;;;;;;;1.27;0.77;;;16.90;99.90;;;;;;5072790;28;20214;-82
2023/09/21 11:39:16;;;;;;;1.27;0.82;;;17.00;99.90;;;;;;5057308;28;20036;-82
2023/09/21 11:41:43;;;;;;;1.10;0.70;;;17.00;99.90;;;;;;5057698;28;20119;-82
2023/09/21 11:44:11;;;;;;;1.63;0.80;;;17.00;99.90;;;;;;5057862;28;20067;-82
2023/09/21 11:46:40;;;;;;;2.38;1.00;;;17.40;99.90;;;;;;5075194;28;20047;-83
2023/09/21 11:49:05;;;;;;;1.80;0.88;;;17.40;99.90;;;;;;5061680;28;20065;-83
2023/09/21 11:51:31;;;;;;;1.23;0.70;;;17.30;99.90;;;;;;5069292;28;20036;-83
2023/09/21 11:53:58;;;;;;;1.23;0.55;;;17.30;99.90;;;;;;5064844;28;20115;-83
2023/09/21 11:56:24;;;;;;;0.55;0.55;;;17.30;99.90;;;;;;5054896;28;20082;-82
2023/09/21 11:58:50;;;;;;;2.35;0.85;;;17.20;99.90;;;;;;5056807;28;20123;-82
2023/09/21 12:01:19;;;;;;;0.70;0.70;;;17.20;99.90;;;;;;5057269;28;20119;-82
2023/09/21 12:03:46;;;;;;;1.38;0.60;;;17.20;99.90;;;;;;5071765;28;20120;-82
2023/09/21 12:06:12;;;;;;;2.60;0.90;;;17.00;99.90;;;;;;5074099;28;20152;-82
2023/09/21 12:08:38;;;;;;;0.60;0.60;;;17.00;99.90;;;;;;5071369;28;20083;-82
2023/09/21 12:11:04;;;;;;;0.90;0.80;;;16.90;99.90;;;;;;5059722;28;20044;-82
2023/09/21 12:13:30;;;;;;;1.75;0.52;;;16.80;99.90;;;;;;5070994;28;20037;-81
2023/09/21 12:15:56;;;;;;;1.27;0.80;;;16.60;99.90;;;;;;5057510;28;20131;-82
2023/09/21 12:18:22;;;;;;;1.15;0.75;;;16.80;99.90;;;;;;5068182;28;20452;-81
2023/09/21 12:20:56;;;;;;;1.45;0.77;;;16.80;99.90;;;;;;5071747;28;20081;-81
2023/09/21 12:23:26;;;;;;;1.20;0.80;;;16.80;99.90;;;;;;5071146;28;20040;-82
2023/09/21 12:25:52;;;;;;;0.93;0.70;;;16.70;99.90;;;;;;5062105;28;20043;-82
2023/09/21 12:28:19;;;;;;;1.00;0.80;;;16.60;99.90;;;;;;5072777;28;20067;-82
2023/09/21 12:30:48;;;;;;;0.90;0.45;;;16.80;99.90;;;;;;5060891;28;20052;-82
2023/09/21 12:33:17;;;;;;;0.85;0.57;;;16.90;99.90;;;;;;5069179;28;20350;-82
2023/09/21 12:35:43;;;;;;;0.75;0.50;;;16.80;99.90;;;;;;5059209;28;20047;-82
2023/09/21 12:38:11;;;;;;;0.95;0.70;;;16.80;99.90;;;;;;5073241;28;20036;-82
2023/09/21 12:40:38;;;;;;;0.70;0.60;;;16.80;99.90;;;;;;5070755;28;20037;-82
2023/09/21 12:43:05;;;;;;;1.50;0.98;;;17.00;99.90;;;;;;5063854;28;20194;-82
2023/09/21 12:45:32;;;;;;;1.40;0.80;;;17.00;99.90;;;;;;5070148;28;20098;-82
2023/09/21 12:48:01;;;;;;;1.45;0.98;;;17.00;99.90;;;;;;5091006;28;20047;-82
2023/09/21 12:50:28;;;;;;;1.40;0.80;;;17.00;99.90;;;;;;5087994;28;20074;-82
2023/09/21 12:52:54;;;;;;;0.93;0.70;;;17.20;99.90;;;;;;5078167;28;20036;-83
2023/09/21 12:55:20;;;;;;;1.35;0.80;;;17.40;99.90;;;;;;5081144;28;20039;-82